Sardar Vafaei

Olheiro - Sepahan
20 Fev 2028
Domingo
Processo

Personalidade

Adaptabilidade (8) Ambição (12) Controvérsia (3) Lealdade (5) Pressão (1) Profissionalismo (4) Espírito Esportivo (9) Temperamento (20)

Perfil

Estilo de Treinamento Democrático
Licença Nacional B
Determinação 8
Gestão de Pessoas 11
Motivação 10
Disciplina 9
Satisfação no Trabalho
100%
Fadiga
0%
Função Olheiro
Salário 30.1K p/s
Contrato 14.03.2028

Desempenho

Comportamento Bom
Eficácia do Treinamento
39%
Desenvolvimento do Jogador
25%
Prevenção de Lesões
50%
Implementação Tática
35%

Eventos Recentes

Negociação de contrato iniciada agora
Participou de uma reunião de recrutamento agora
Negociação de contrato iniciada agora
Negociação de contrato iniciada agora
Negociação de contrato iniciada agora
Negociação de contrato iniciada 7d atrás
Negociação de contrato iniciada 7d atrás
Negociação de contrato iniciada 7d atrás

Monitorando agora

91
Jogador Clube Status Habilidade Confiança Observado Última observação Último voto
Mohammad Amin Moradi Foolad Perdido 96 / 105 58% 1 06.01.2028 Aprovar
Biola Sabitu Remo Stars Ativo 111 / 97 40% 2 30.12.2027 -
Facundo Lemos Artigas Ativo 93 / 95 40% 1 30.12.2027 -
Franco Rivasseau Patronato Ativo 112 / 119 40% 3 28.12.2027 -
Joaquín Enrico San Telmo Ativo 116 / 121 40% 3 28.12.2027 -
Moisés Gallo Zulia Ativo 94 / 94 40% 1 25.12.2027 -
Ifeanyi Emmanuel Niger Tornadoes Ativo 120 / 100 40% 2 20.12.2027 -
Agustín Buffa Wanderers Ativo 93 / 100 40% 1 16.12.2027 -
Sol Brynn Krasnodar Ativo 138 / 132 40% 1 16.12.2027 -
Leopold Wahlstedt Rosenborg Ativo 120 / 126 40% 1 13.12.2027 -
Joaquín Bigo Tristán Suárez Ativo 123 / 117 40% 2 11.12.2027 -
Facundo Vila Estudiantes Ativo 103 / 119 40% 1 11.12.2027 -
Emiliano González Almagro Ativo 132 / 130 40% 1 08.12.2027 -
Francisco Salerno Defensores Unidos Ativo 127 / 110 40% 1 07.12.2027 -
Nahuel Galardi Maipú Ativo 114 / 125 40% 1 07.12.2027 -
Jerónimo Pourtau Talleres Ativo 131 / 114 40% 1 01.12.2027 -
Sebastián Jaume Albion Ativo 96 / 109 40% 3 29.11.2027 -
Emmanuel Gómez Riga Alvarado Ativo 103 / 104 40% 2 28.11.2027 -
Pontus Dahlberg Lillestrom Ativo 121 / 112 40% 2 26.11.2027 -
Ali Ishaku Abia Warriors Ativo 87 / 115 40% 1 23.11.2027 -
Mustapha Lawal Shooting Stars Ativo 90 / 109 40% 1 09.11.2027 -
Luis Ingolotti Atlético Tucumán Ativo 125 / 116 40% 1 09.11.2027 -
Joel McGregor Swindon Town Ativo 83 / 91 40% 3 28.05.2027 -
Ernie Weaver AFC Wimbledon Ativo 107 / 121 40% 3 28.05.2027 -
Kwadwo Baah Watford Ativo 123 / 127 40% 1 28.05.2027 -
Saman Rezaeian Gostaresh Foulad Ativo 107 / 117 40% 1 25.05.2027 -
Leandro Martins Benfica Ativo 100 / 100 40% 2 24.05.2027 -
Isaiah Jones Luton Town Ativo 126 / 126 40% 1 21.05.2027 -
Tommy Conway Middlesbrough Ativo 127 / 130 40% 1 21.05.2027 -
Percy Jali Free State Stars Ativo 82 / 91 40% 2 19.05.2027 -
Welington Southampton Ativo 134 / 121 40% 3 19.05.2027 -
Christ Inao Oulaï Fiorentina Ativo 142 / 139 40% 2 19.05.2027 -
Kazunari Kita Real Sociedad Ativo 102 / 111 40% 3 15.05.2027 -
Taras Mykhavko Dynamo Kyiv Ativo 121 / 136 40% 1 15.05.2027 Mais informações
Tom Fellows Southampton Ativo 140 / 138 40% 2 13.05.2027 -
Kristoffer Lund Birmingham Ativo 133 / 121 40% 1 13.05.2027 -
Daniel Costa Sporting CP Ativo 101 / 96 40% 1 12.05.2027 -
Davide Bartesaghi AC Milan Ativo 126 / 139 40% 1 10.05.2027 -
Dylan Lawlor Cardiff City Ativo 117 / 113 40% 3 08.05.2027 -
Ehsan Gholizadeh Rah Ahan Ativo 101 / 104 40% 2 07.05.2027 -
Fuzy Taylor Medeama Ativo 81 / 83 40% 1 07.05.2027 -
Ali Ahmed Norwich City Ativo 118 / 122 40% 1 06.05.2027 -
Zeidane Inoussa Swansea City Ativo 132 / 121 40% 1 06.05.2027 -
Gonçalo Oliveira Benfica Ativo 102 / 111 40% 1 01.05.2027 -
Johan Manzambi Newcastle United Ativo 139 / 145 40% 1 30.04.2027 -
Mduduzi Shabalala Kaizer Chiefs Ativo 107 / 113 40% 3 29.04.2027 -
Cian Ashford Cardiff City Ativo 122 / 113 40% 2 29.04.2027 -
Juan Giménez Celta Ativo 110 / 122 40% 2 29.04.2027 -
David Ozoh Derby County Ativo 121 / 129 40% 3 28.04.2027 -
Martim Cunha Porto Ativo 105 / 100 40% 1 26.04.2027 -
Daniel Kyerewaa Reading Ativo 106 / 119 40% 2 23.04.2027 -
Kasey McAteer Ipswich Town Ativo 129 / 122 40% 2 19.04.2027 -
Joe Gelhardt Hull City Ativo 123 / 141 40% 1 19.04.2027 -
Caleb Yirenkyi Coventry City Ativo 125 / 135 40% 2 17.04.2027 -
Christos Mouzakitis Hull City Ativo 140 / 144 40% 2 17.04.2027 Mais informações
Finn Azaz Southampton Ativo 140 / 129 40% 1 15.04.2027 -
Vasilije Novičić IMT Ativo 81 / 96 40% 1 15.04.2027 -
Edwin Asamoah Berekum Chelsea Ativo 89 / 78 40% 1 14.04.2027 -
Morgan Whittaker Middlesbrough Ativo 142 / 129 40% 1 12.04.2027 -
Mathias Jørgensen Blackburn Rovers Ativo 108 / 123 40% 1 11.04.2027 -
Derensili Sanches Fernandes Huddersfield Town Ativo 122 / 117 40% 2 07.04.2027 -
Jack Rudoni Coventry City Ativo 124 / 137 40% 1 07.04.2027 -
Valentin Atangana Al-Ahli Ativo 136 / 126 40% 1 06.04.2027 -
Saeid Taremi Gostaresh Foulad Ativo 93 / 87 40% 1 06.04.2027 -
Oston O'runov Persepolis Ativo 130 / 112 40% 1 27.03.2027 -
Omid Gholizadeh Siah Jamegan Perdido 134 / 121 40% 2 26.03.2027 Mais informações
Majid Beiranvand Rah Ahan Ativo 110 / 116 40% 2 22.03.2027 -
Jofre Torrents Ajax Ativo 112 / 118 40% 1 17.03.2027 -
Williams Manyama SuperSport United Ativo 100 / 127 40% 1 16.03.2027 -
David Atiemo Liberty Professionals Ativo 99 / 98 40% 1 13.03.2027 -
Cathal Heffernan Harrogate Town Ativo 83 / 85 40% 1 13.03.2027 -
Daniel Kelly Oxford United Ativo 120 / 117 40% 1 12.03.2027 -
Aidan Morris Middlesbrough Ativo 130 / 131 40% 1 11.03.2027 -
Darryl Bakola Padova Ativo 102 / 124 40% 1 08.03.2027 -
Oswin Appollis Orlando Pirates Ativo 140 / 113 40% 2 02.03.2027 -
Hakim Sulemana Medeama Ativo 90 / 102 40% 1 28.02.2027 -
Alireza Koushki Esteghlal Ativo 118 / 115 40% 1 27.02.2027 -
Mandla Erasmus SuperSport United Ativo 106 / 129 40% 2 25.02.2027 -
Thalente Mbatha Orlando Pirates Ativo 124 / 129 40% 1 25.02.2027 -
Mohammad Khodabandelou Persepolis Ativo 122 / 110 40% 1 22.02.2027 -
Reda Khadra Qarabag Ativo 117 / 137 40% 1 18.02.2027 -
Silvio Gentile Zob Ahan Ativo 114 / 116 40% 1 18.02.2027 -
Sebastián Arce Rodina Ativo 110 / 118 40% 1 15.02.2027 -
Romano Schmid Frosinone Ativo 135 / 148 40% 1 12.02.2027 -
Mattéo Tramoni Pisa Ativo 130 / 138 40% 1 12.02.2027 -
Christian Krasnodar Ativo 152 / 134 40% 1 11.02.2027 -
Alessio Zerbin Frosinone Ativo 124 / 127 40% 1 10.02.2027 -
Kaveh Karimi Siah Jamegan Ativo 111 / 99 40% 1 10.02.2027 -
Ronaldo Maarman University of Pretoria Ativo 118 / 95 40% 1 01.02.2027 -
Gonzalo Escudero Racing Club Ativo 88 / 102 40% 1 24.08.2026 -
Karim Adeyemi Barcelona Ativo 144 / 147 40% 1 01.08.2026 -